Terminal Aerodrome Forecast
Issued by NWS Grand Rapids, MI

Home | Current Version | Previous Version | Text Only | Print | Product List | Glossary On
Versions: 1 2 3 4 5 6 7 8 9 10 11 12 13 14 15 16 17 18 19 20 21 22 23
000
FTUS43 KGRR 011503 AAC
TAFGRR
TAF AMD
KGRR 011503Z 0115/0212 29006KT P6SM BKN013 OVC020
     FM011800 31009KT P6SM BKN025
     FM012000 32010KT P6SM BKN035
     FM020200 35003KT P6SM SKC=

USA.gov is the U.S. government's official web portal to all federal, state and local government web resources and services.